createdAt,value
2023-03-29T00:00:16.834Z,40.70
2023-03-29T00:03:05.305Z,43.10
2023-03-29T00:05:36.253Z,42.00
2023-03-29T00:08:04.606Z,42.10
2023-03-29T00:10:34.242Z,46.30
2023-03-29T00:13:03.176Z,45.70
2023-03-29T00:15:31.392Z,45.20
2023-03-29T00:17:59.393Z,45.10
2023-03-29T00:20:28.914Z,45.20
2023-03-29T00:22:56.983Z,40.30
2023-03-29T00:25:25.012Z,40.00
2023-03-29T00:27:53.027Z,40.80
2023-03-29T00:30:21.081Z,40.60
2023-03-29T00:32:49.015Z,48.10
2023-03-29T00:35:17.251Z,42.30
2023-03-29T00:37:47.249Z,45.60
2023-03-29T00:40:15.700Z,46.40
2023-03-29T00:42:46.737Z,45.70
2023-03-29T00:45:27.676Z,48.00
2023-03-29T00:48:04.728Z,42.10
2023-03-29T00:50:57.424Z,40.50
2023-03-29T00:53:33.503Z,37.30
2023-03-29T00:56:05.395Z,37.40
2023-03-29T00:59:02.379Z,40.60
2023-03-29T01:01:42.248Z,45.60
2023-03-29T01:04:26.043Z,41.50
2023-03-29T01:06:59.356Z,41.70
2023-03-29T01:09:30.475Z,43.60
2023-03-29T01:12:03.017Z,44.30
2023-03-29T01:14:41.891Z,46.80
2023-03-29T01:17:12.951Z,54.00
2023-03-29T01:19:47.988Z,45.80
2023-03-29T01:22:18.833Z,38.40
2023-03-29T01:25:14.618Z,37.50
2023-03-29T01:27:51.663Z,39.20
2023-03-29T01:30:29.871Z,37.30
2023-03-29T01:33:04.316Z,41.40
2023-03-29T01:36:04.921Z,42.50
2023-03-29T01:38:51.734Z,47.50
2023-03-29T01:41:20.270Z,49.10
2023-03-29T01:43:51.448Z,58.60
2023-03-29T01:46:26.540Z,53.60
2023-03-29T01:49:03.638Z,48.20
2023-03-29T01:52:01.301Z,44.50
2023-03-29T01:54:36.169Z,42.30
2023-03-29T01:57:07.053Z,50.20
2023-03-29T01:59:38.683Z,41.40
2023-03-29T02:02:11.983Z,41.60
2023-03-29T02:04:48.061Z,39.80
2023-03-29T02:07:19.388Z,43.30
2023-03-29T02:09:50.100Z,42.20
2023-03-29T02:12:18.957Z,43.30
2023-03-29T02:14:46.956Z,41.00
2023-03-29T02:17:24.482Z,43.80
2023-03-29T02:19:59.416Z,37.70
2023-03-29T02:22:37.253Z,40.30
2023-03-29T02:25:08.611Z,38.40
2023-03-29T02:27:38.125Z,38.70
2023-03-29T02:30:09.076Z,37.70
2023-03-29T02:32:51.963Z,38.70
2023-03-29T02:35:35.173Z,45.30
2023-03-29T02:38:07.102Z,43.30
2023-03-29T02:40:37.791Z,46.90
2023-03-29T02:43:08.415Z,50.90
2023-03-29T02:45:39.768Z,49.70
2023-03-29T02:48:12.570Z,50.80
2023-03-29T02:50:43.668Z,56.00
2023-03-29T02:53:26.810Z,51.70
2023-03-29T02:55:55.605Z,49.20
2023-03-29T02:58:26.682Z,52.80
2023-03-29T03:00:57.162Z,48.20
2023-03-29T03:03:25.610Z,41.80
2023-03-29T03:05:54.001Z,41.50
2023-03-29T03:08:22.006Z,41.70
2023-03-29T03:10:50.113Z,42.40
2023-03-29T03:13:20.826Z,49.90
2023-03-29T03:15:49.457Z,47.90
2023-03-29T03:18:17.659Z,53.30
2023-03-29T03:20:58.281Z,57.50
2023-03-29T03:23:26.214Z,79.90
2023-03-29T03:25:55.334Z,95.90
2023-03-29T03:28:24.431Z,61.70
2023-03-29T03:30:53.066Z,49.00
2023-03-29T03:33:56.785Z,51.20
2023-03-29T03:36:51.176Z,45.20
2023-03-29T03:39:19.185Z,50.50
2023-03-29T03:41:47.136Z,73.70
2023-03-29T03:44:15.071Z,73.00
2023-03-29T03:46:44.116Z,67.60
2023-03-29T03:49:12.252Z,54.60
2023-03-29T03:51:44.390Z,52.20
2023-03-29T03:54:12.725Z,43.20
2023-03-29T03:57:01.121Z,46.90
2023-03-29T03:59:39.768Z,44.30
2023-03-29T04:02:11.906Z,45.60
2023-03-29T04:04:40.753Z,45.90
2023-03-29T04:07:13.203Z,52.40
2023-03-29T04:10:09.279Z,45.20
2023-03-29T04:12:47.204Z,45.10
2023-03-29T04:15:17.950Z,46.00
2023-03-29T04:17:51.543Z,45.80
2023-03-29T04:20:19.790Z,44.30
2023-03-29T04:22:47.811Z,42.60
2023-03-29T04:26:15.782Z,44.90
2023-03-29T04:29:04.913Z,43.40
2023-03-29T04:31:40.219Z,43.10
2023-03-29T04:34:29.358Z,46.40
2023-03-29T04:36:58.926Z,49.00
2023-03-29T04:39:33.864Z,45.60
2023-03-29T04:42:03.164Z,48.70
2023-03-29T04:44:33.769Z,51.50
2023-03-29T04:47:02.268Z,46.90
2023-03-29T04:49:30.556Z,48.90
2023-03-29T04:52:01.010Z,46.30
2023-03-29T04:54:30.375Z,45.90
2023-03-29T04:57:17.231Z,56.30
2023-03-29T04:59:56.986Z,58.80
2023-03-29T05:02:50.941Z,53.30
2023-03-29T05:05:19.476Z,49.20
2023-03-29T05:07:48.055Z,52.10
2023-03-29T05:10:16.440Z,46.20
2023-03-29T05:12:44.539Z,44.20
2023-03-29T05:15:12.522Z,52.20
2023-03-29T05:17:40.858Z,66.70
2023-03-29T05:20:12.920Z,51.60
2023-03-29T05:22:41.211Z,50.40
2023-03-29T05:25:11.888Z,52.70
2023-03-29T05:27:42.533Z,58.30
2023-03-29T05:30:11.935Z,58.20
2023-03-29T05:32:48.197Z,56.00
2023-03-29T05:35:17.661Z,60.60
2023-03-29T05:37:47.418Z,65.60
2023-03-29T05:40:15.513Z,58.50
2023-03-29T05:43:02.929Z,65.10
2023-03-29T05:45:32.592Z,63.20
2023-03-29T05:48:00.881Z,57.30
2023-03-29T05:50:30.249Z,56.70
2023-03-29T05:52:58.685Z,53.90
2023-03-29T05:55:27.120Z,63.80
2023-03-29T05:57:55.908Z,53.30
2023-03-29T06:00:26.853Z,44.10
2023-03-29T06:03:17.631Z,44.50
2023-03-29T06:05:56.328Z,48.50
2023-03-29T06:08:26.302Z,47.20
2023-03-29T06:11:09.147Z,45.10
2023-03-29T06:13:55.953Z,53.00
2023-03-29T06:16:24.187Z,48.70
2023-03-29T06:18:53.326Z,45.90
2023-03-29T06:21:22.350Z,43.70
2023-03-29T06:23:50.502Z,47.40
2023-03-29T06:26:19.192Z,43.30
2023-03-29T06:28:51.417Z,40.20
2023-03-29T06:31:21.173Z,41.40
2023-03-29T06:33:50.928Z,39.20
2023-03-29T06:36:45.970Z,41.70
2023-03-29T06:39:14.563Z,43.50
2023-03-29T06:41:57.982Z,45.70
2023-03-29T06:44:44.149Z,46.60
2023-03-29T06:47:19.774Z,42.30
2023-03-29T06:49:47.735Z,41.40
2023-03-29T06:52:30.283Z,43.50
2023-03-29T06:55:02.041Z,39.40
2023-03-29T06:57:30.880Z,39.80
2023-03-29T06:59:59.299Z,43.30
2023-03-29T07:02:44.513Z,48.80
2023-03-29T07:05:14.662Z,49.30
2023-03-29T07:07:55.507Z,50.90
2023-03-29T07:10:54.061Z,50.90
2023-03-29T07:13:46.341Z,48.90
2023-03-29T07:16:18.148Z,53.60
2023-03-29T07:18:48.995Z,49.30
2023-03-29T07:21:28.912Z,48.60
2023-03-29T07:24:01.827Z,45.20
2023-03-29T07:26:30.620Z,43.80
2023-03-29T07:29:00.275Z,40.70
2023-03-29T07:31:33.140Z,37.30
2023-03-29T07:34:20.923Z,36.80
2023-03-29T07:36:48.998Z,39.70
2023-03-29T07:39:17.752Z,36.90
2023-03-29T07:41:58.128Z,28.00
2023-03-29T07:44:27.246Z,29.80
2023-03-29T07:46:56.315Z,31.10
2023-03-29T07:50:15.100Z,27.40
2023-03-29T07:52:44.478Z,31.70
2023-03-29T07:55:14.040Z,27.60
2023-03-29T07:58:05.447Z,21.90
2023-03-29T08:00:34.232Z,20.30
2023-03-29T08:03:17.221Z,23.60
2023-03-29T08:05:45.462Z,22.30
2023-03-29T08:08:16.404Z,27.80
2023-03-29T08:10:52.022Z,37.60
2023-03-29T08:13:42.938Z,24.80
2023-03-29T08:16:23.079Z,21.80
2023-03-29T08:18:56.777Z,20.50
2023-03-29T08:21:26.587Z,20.70
2023-03-29T08:23:54.698Z,17.90
2023-03-29T08:26:27.341Z,20.10
2023-03-29T08:28:55.993Z,19.70
2023-03-29T08:31:24.640Z,20.00
2023-03-29T08:33:53.389Z,18.80
2023-03-29T08:36:40.370Z,18.10
2023-03-29T08:39:19.543Z,15.10
2023-03-29T08:42:04.964Z,17.50
2023-03-29T08:44:58.007Z,13.00
2023-03-29T08:47:45.543Z,10.80
2023-03-29T08:50:15.151Z,15.50
2023-03-29T08:52:51.663Z,23.90
2023-03-29T08:55:38.124Z,37.40
2023-03-29T08:58:29.133Z,16.80
2023-03-29T09:01:00.400Z,16.00
2023-03-29T09:03:44.063Z,12.30
2023-03-29T09:06:19.265Z,15.30
2023-03-29T09:08:49.873Z,14.40
2023-03-29T09:11:24.677Z,12.80
2023-03-29T09:14:13.331Z,13.90
2023-03-29T09:16:52.106Z,12.10
2023-03-29T09:19:31.559Z,12.20
2023-03-29T09:22:09.600Z,11.00
2023-03-29T09:24:56.490Z,13.50
2023-03-29T09:27:50.425Z,10.30
2023-03-29T09:30:34.864Z,12.90
2023-03-29T09:33:12.748Z,9.90
2023-03-29T09:36:09.236Z,8.40
2023-03-29T09:38:41.495Z,8.30
2023-03-29T09:41:28.007Z,8.20
2023-03-29T09:44:00.373Z,7.80
2023-03-29T09:46:42.696Z,7.80
2023-03-29T09:49:17.765Z,7.00
2023-03-29T09:51:49.164Z,6.30
2023-03-29T09:54:17.377Z,6.60
2023-03-29T09:57:23.385Z,8.40
2023-03-29T09:59:52.652Z,7.00
2023-03-29T10:02:21.861Z,7.00
2023-03-29T10:05:03.936Z,6.90
2023-03-29T10:07:44.663Z,6.50
2023-03-29T10:10:34.638Z,6.10
2023-03-29T10:13:11.346Z,7.40
2023-03-29T10:15:39.514Z,11.30
2023-03-29T10:18:11.912Z,8.10
2023-03-29T10:20:40.767Z,7.40
2023-03-29T10:23:17.375Z,6.70
2023-03-29T10:25:45.784Z,14.00
2023-03-29T10:28:17.724Z,10.10
2023-03-29T10:30:52.789Z,6.20
2023-03-29T10:33:24.317Z,7.10
2023-03-29T10:35:52.646Z,6.40
2023-03-29T10:38:24.170Z,6.90
2023-03-29T10:40:53.894Z,6.60
2023-03-29T10:43:29.808Z,6.60
2023-03-29T10:47:14.059Z,6.00
2023-03-29T10:49:44.945Z,8.10
2023-03-29T10:52:17.287Z,6.60
2023-03-29T10:54:46.520Z,6.00
2023-03-29T10:57:56.324Z,9.30
2023-03-29T11:00:59.970Z,11.70
2023-03-29T11:03:41.559Z,5.20
2023-03-29T11:06:16.628Z,6.00
2023-03-29T11:08:57.841Z,11.50
2023-03-29T11:11:45.450Z,7.80
2023-03-29T11:14:31.685Z,8.70
2023-03-29T11:17:22.788Z,5.90
2023-03-29T11:19:56.625Z,7.10
2023-03-29T11:22:50.501Z,6.30
2023-03-29T11:25:38.580Z,6.70
2023-03-29T11:28:20.280Z,5.60
2023-03-29T11:31:06.983Z,5.40
2023-03-29T11:33:55.120Z,5.90
2023-03-29T11:36:39.072Z,8.50
2023-03-29T11:39:16.076Z,6.00
2023-03-29T11:41:49.006Z,5.50
2023-03-29T11:44:22.687Z,6.50
2023-03-29T11:47:00.546Z,6.00
2023-03-29T11:49:34.329Z,6.20
2023-03-29T11:52:20.581Z,6.90
2023-03-29T11:54:53.673Z,5.60
2023-03-29T11:57:29.108Z,6.10
2023-03-29T12:00:07.108Z,5.90
2023-03-29T12:02:46.362Z,5.80
2023-03-29T12:05:23.092Z,7.20
2023-03-29T12:07:57.098Z,6.90
2023-03-29T12:13:06.568Z,6.00
2023-03-29T12:15:42.832Z,6.40
2023-03-29T12:18:41.032Z,8.00
2023-03-29T12:21:14.214Z,9.30
2023-03-29T12:23:44.778Z,5.90
2023-03-29T12:26:50.294Z,5.50
2023-03-29T12:29:46.707Z,5.00
2023-03-29T12:32:31.681Z,5.90
2023-03-29T12:35:22.263Z,9.00
2023-03-29T12:38:21.657Z,7.00
2023-03-29T12:41:23.145Z,5.70
2023-03-29T12:44:24.028Z,4.60
2023-03-29T12:47:00.476Z,5.50
2023-03-29T12:49:33.451Z,6.90
2023-03-29T12:52:05.649Z,7.00
2023-03-29T12:54:33.921Z,6.60
2023-03-29T12:57:20.010Z,6.30
2023-03-29T12:59:49.498Z,7.00
2023-03-29T13:02:18.186Z,8.30
2023-03-29T13:04:58.050Z,7.40
2023-03-29T13:07:30.600Z,7.40
2023-03-29T13:10:28.252Z,8.70
2023-03-29T13:12:56.252Z,7.90
2023-03-29T13:15:27.384Z,9.70
2023-03-29T13:18:32.326Z,6.40
2023-03-29T13:21:31.027Z,9.30
2023-03-29T13:24:16.971Z,8.60
2023-03-29T13:26:51.824Z,8.10
2023-03-29T13:29:43.327Z,5.60
2023-03-29T13:32:36.192Z,5.60
2023-03-29T13:35:11.705Z,8.50
2023-03-29T13:38:01.390Z,7.10
2023-03-29T13:40:43.513Z,7.20
2023-03-29T13:43:18.656Z,8.20
2023-03-29T13:45:58.732Z,5.80
2023-03-29T13:48:35.826Z,5.40
2023-03-29T13:51:20.247Z,5.70
2023-03-29T13:53:54.922Z,5.40
2023-03-29T13:56:27.226Z,5.90
2023-03-29T13:59:05.727Z,6.10
2023-03-29T14:01:46.017Z,6.20
2023-03-29T14:04:30.629Z,6.30
2023-03-29T14:07:01.211Z,6.60
2023-03-29T14:09:32.093Z,8.50
2023-03-29T14:12:01.227Z,6.60
2023-03-29T14:14:32.260Z,5.90
2023-03-29T14:17:00.981Z,6.70
2023-03-29T14:19:34.253Z,6.50
2023-03-29T14:22:07.732Z,7.00
2023-03-29T14:25:29.390Z,6.70
2023-03-29T14:27:57.568Z,6.10
2023-03-29T14:30:28.800Z,6.90
2023-03-29T14:32:56.947Z,6.70
2023-03-29T14:35:33.441Z,7.40
2023-03-29T14:38:02.483Z,6.70
2023-03-29T14:40:30.918Z,6.40
2023-03-29T14:43:06.749Z,7.20
2023-03-29T14:45:35.457Z,6.60
2023-03-29T14:48:04.625Z,6.90
2023-03-29T14:50:32.917Z,6.90
2023-03-29T14:53:01.820Z,7.20
2023-03-29T14:55:31.075Z,6.80
2023-03-29T14:58:00.338Z,6.90
2023-03-29T15:00:30.247Z,7.40
2023-03-29T15:03:03.123Z,16.20
2023-03-29T15:05:44.002Z,17.90
2023-03-29T15:08:27.622Z,7.50
2023-03-29T15:10:55.694Z,5.70
2023-03-29T15:13:25.393Z,6.60
2023-03-29T15:15:59.138Z,6.80
2023-03-29T15:18:39.932Z,6.50
2023-03-29T15:21:10.244Z,6.10
2023-03-29T15:23:42.179Z,5.60
2023-03-29T15:26:23.375Z,5.80
2023-03-29T15:28:57.642Z,6.70
2023-03-29T15:31:32.481Z,7.40
2023-03-29T15:34:06.303Z,4.80
2023-03-29T15:36:42.356Z,6.40
2023-03-29T15:39:15.566Z,16.20
2023-03-29T15:41:45.340Z,9.70
2023-03-29T15:44:17.399Z,7.80
2023-03-29T15:46:45.467Z,16.80
2023-03-29T15:49:14.351Z,6.80
2023-03-29T15:51:42.322Z,8.60
2023-03-29T15:54:10.594Z,8.60
2023-03-29T15:57:22.872Z,4.90
2023-03-29T16:01:07.899Z,6.30
2023-03-29T16:04:24.657Z,6.90
2023-03-29T16:06:55.693Z,5.50
2023-03-29T16:09:23.774Z,6.20
2023-03-29T16:11:56.591Z,6.30
2023-03-29T16:14:43.133Z,10.70
2023-03-29T16:20:32.958Z,9.40
2023-03-29T16:23:01.187Z,10.40
2023-03-29T16:25:29.102Z,8.60
2023-03-29T16:27:57.089Z,8.30
2023-03-29T16:30:25.338Z,6.20
2023-03-29T16:32:53.343Z,6.40
2023-03-29T16:35:31.294Z,9.90
2023-03-29T16:37:59.398Z,6.90
2023-03-29T16:40:28.022Z,7.10
2023-03-29T16:42:56.074Z,7.10
2023-03-29T16:45:24.032Z,7.60
2023-03-29T16:47:51.981Z,9.30
2023-03-29T16:50:21.901Z,11.90
2023-03-29T16:52:51.636Z,12.80
2023-03-29T16:55:22.268Z,14.00
2023-03-29T16:57:51.030Z,22.10
2023-03-29T17:00:20.350Z,32.60
2023-03-29T17:02:51.354Z,32.50
2023-03-29T17:05:19.696Z,29.00
2023-03-29T17:07:47.848Z,28.20
2023-03-29T17:10:16.180Z,27.40
2023-03-29T17:12:45.596Z,27.00
2023-03-29T17:15:13.792Z,32.20
2023-03-29T17:17:42.042Z,30.60
2023-03-29T17:20:12.389Z,31.90
2023-03-29T17:22:41.525Z,34.20
2023-03-29T17:25:10.176Z,32.90
2023-03-29T17:27:38.268Z,34.20
2023-03-29T17:30:07.240Z,42.70
2023-03-29T17:32:35.883Z,43.10
2023-03-29T17:35:04.812Z,38.10
2023-03-29T17:37:32.856Z,38.20
2023-03-29T17:40:01.021Z,38.60
2023-03-29T17:42:28.990Z,39.10
2023-03-29T17:44:57.008Z,39.70
2023-03-29T17:47:25.309Z,41.70
2023-03-29T17:49:53.427Z,38.80
2023-03-29T17:52:21.617Z,38.00
2023-03-29T17:54:49.655Z,38.00
2023-03-29T17:57:17.789Z,43.50
2023-03-29T17:59:46.243Z,44.30
2023-03-29T18:02:19.365Z,54.90
2023-03-29T18:04:47.683Z,60.90
2023-03-29T18:07:16.013Z,62.10
2023-03-29T18:09:44.132Z,53.20
2023-03-29T18:12:12.545Z,56.50
2023-03-29T18:14:40.787Z,42.70
2023-03-29T18:17:09.103Z,42.80
2023-03-29T18:19:37.288Z,44.00
2023-03-29T18:22:05.440Z,42.40
2023-03-29T18:24:33.345Z,40.30
2023-03-29T18:27:01.461Z,51.20
2023-03-29T18:29:29.638Z,42.00
2023-03-29T18:32:02.836Z,51.00
2023-03-29T18:34:31.348Z,62.70
2023-03-29T18:36:59.313Z,53.50
2023-03-29T18:39:27.520Z,50.50
2023-03-29T18:41:55.432Z,57.50
2023-03-29T18:44:27.323Z,56.30
2023-03-29T18:46:56.379Z,55.70
2023-03-29T18:49:25.820Z,69.90
2023-03-29T18:51:57.335Z,72.20
2023-03-29T18:54:35.178Z,71.80
2023-03-29T18:57:06.868Z,63.50
2023-03-29T18:59:36.609Z,68.20
2023-03-29T19:02:04.739Z,71.30
2023-03-29T19:04:32.837Z,68.50
2023-03-29T19:07:01.496Z,70.70
2023-03-29T19:09:30.218Z,68.90
2023-03-29T19:11:58.672Z,62.10
2023-03-29T19:14:26.842Z,58.00
2023-03-29T19:16:54.912Z,59.90
2023-03-29T19:19:23.852Z,59.70
2023-03-29T19:21:53.403Z,57.70
2023-03-29T19:24:22.084Z,52.50
2023-03-29T19:26:52.060Z,50.40
2023-03-29T19:29:20.674Z,47.30
2023-03-29T19:31:48.873Z,47.60
2023-03-29T19:34:19.736Z,58.20
2023-03-29T19:36:47.667Z,49.60
2023-03-29T19:39:15.619Z,47.10
2023-03-29T19:41:43.611Z,46.70
2023-03-29T19:44:11.532Z,46.80
2023-03-29T19:46:40.684Z,52.30
2023-03-29T19:49:09.767Z,53.20
2023-03-29T19:51:37.776Z,53.30
2023-03-29T19:54:07.043Z,53.20
2023-03-29T19:56:34.996Z,47.60
2023-03-29T19:59:02.951Z,48.90
2023-03-29T20:01:32.417Z,46.10
2023-03-29T20:06:29.629Z,58.90
2023-03-29T20:08:58.679Z,47.60
2023-03-29T20:11:26.659Z,51.40
2023-03-29T20:13:54.580Z,49.50
2023-03-29T20:16:25.786Z,47.90
2023-03-29T20:18:54.120Z,57.10
2023-03-29T20:21:22.064Z,56.90
2023-03-29T20:23:52.536Z,54.20
2023-03-29T20:26:20.518Z,55.00
2023-03-29T20:28:48.609Z,55.50
2023-03-29T20:31:16.839Z,54.10
2023-03-29T20:33:44.858Z,59.60
2023-03-29T20:36:13.350Z,67.40
2023-03-29T20:38:41.328Z,63.10
2023-03-29T20:41:09.513Z,58.00
2023-03-29T20:43:37.769Z,59.30
2023-03-29T20:46:14.708Z,56.80
2023-03-29T20:48:46.162Z,62.40
2023-03-29T20:51:14.304Z,66.30
2023-03-29T20:53:42.985Z,60.00
2023-03-29T20:56:10.926Z,49.10
2023-03-29T20:58:42.074Z,49.30
2023-03-29T21:01:14.335Z,58.30
2023-03-29T21:03:42.399Z,56.10
2023-03-29T21:06:14.071Z,67.10
2023-03-29T21:08:45.466Z,66.30
2023-03-29T21:11:14.027Z,59.20
2023-03-29T21:13:43.623Z,61.10
2023-03-29T21:16:13.007Z,57.10
2023-03-29T21:18:41.690Z,54.00
2023-03-29T21:21:11.382Z,55.10
2023-03-29T21:23:41.746Z,51.40
2023-03-29T21:26:09.675Z,48.60
2023-03-29T21:28:41.351Z,47.10
2023-03-29T21:31:09.648Z,46.50
2023-03-29T21:33:37.633Z,54.00
2023-03-29T21:36:05.823Z,52.50
2023-03-29T21:38:46.815Z,51.50
2023-03-29T21:41:14.756Z,49.30
2023-03-29T21:43:49.668Z,47.80
2023-03-29T21:46:17.638Z,42.80
2023-03-29T21:48:45.568Z,40.10
2023-03-29T21:51:13.555Z,41.90
2023-03-29T21:53:44.015Z,42.90
2023-03-29T21:56:12.302Z,42.70
2023-03-29T21:58:47.160Z,40.10
2023-03-29T22:01:19.357Z,39.00
2023-03-29T22:03:49.155Z,38.00
2023-03-29T22:06:17.488Z,40.40
2023-03-29T22:08:46.857Z,52.80
2023-03-29T22:11:17.731Z,40.30
2023-03-29T22:13:48.689Z,37.10
2023-03-29T22:16:19.587Z,38.00
2023-03-29T22:18:54.321Z,38.00
2023-03-29T22:21:24.719Z,38.20
2023-03-29T22:24:01.723Z,36.70
2023-03-29T22:26:32.992Z,36.80
2023-03-29T22:29:01.577Z,36.70
2023-03-29T22:31:30.208Z,42.00
2023-03-29T22:33:58.707Z,40.60
2023-03-29T22:36:29.750Z,41.10
2023-03-29T22:38:58.280Z,39.90
2023-03-29T22:41:27.737Z,40.00
2023-03-29T22:43:58.825Z,34.60
2023-03-29T22:46:27.348Z,32.30
2023-03-29T22:48:55.754Z,46.10
2023-03-29T22:51:23.689Z,33.70
2023-03-29T22:53:51.603Z,31.20
2023-03-29T22:56:19.780Z,31.90
2023-03-29T22:58:47.699Z,32.70
2023-03-29T23:01:15.884Z,33.10
2023-03-29T23:03:43.919Z,30.90
2023-03-29T23:06:11.825Z,30.80
2023-03-29T23:08:39.812Z,31.50
2023-03-29T23:11:07.774Z,27.00
2023-03-29T23:13:35.826Z,29.30
2023-03-29T23:16:04.951Z,29.90
2023-03-29T23:18:35.004Z,25.90
2023-03-29T23:21:05.964Z,27.70
2023-03-29T23:23:35.208Z,28.90
2023-03-29T23:26:03.232Z,30.50
2023-03-29T23:28:34.712Z,29.00
2023-03-29T23:31:11.600Z,31.80
2023-03-29T23:33:42.763Z,31.10
2023-03-29T23:36:17.226Z,28.10
2023-03-29T23:38:46.831Z,27.90
2023-03-29T23:41:15.215Z,30.70
2023-03-29T23:43:44.092Z,31.70
2023-03-29T23:46:16.977Z,26.40
2023-03-29T23:48:46.216Z,29.20
2023-03-29T23:51:14.183Z,29.20
2023-03-29T23:53:42.084Z,28.90
2023-03-29T23:56:10.165Z,31.50
2023-03-29T23:58:38.281Z,31.30
